Time;durP1;ratioP1;P1;durP2;ratioP2;P2;SDS_P1;SDS_P2;PMS_P1;PMS_P2;Temp;Humidity;BMP_temperature;BMP_pressure;BME280_temperature;BME280_humidity;BME280_pressure;Samples;Min_cycle;Max_cycle;Signal;HPM_P1;HPM_P2
2021/03/31 00:00:39;;;;;;;1.77;1.47;;;;;;;7.27;57.63;101575.06;5070831;28;20637;-70
2021/03/31 00:03:11;;;;;;;1.30;1.20;;;;;;;7.12;58.11;101562.16;5070842;28;20210;-70
2021/03/31 00:05:36;;;;;;;2.00;1.50;;;;;;;7.12;56.41;101567.59;5069515;28;20174;-70
2021/03/31 00:08:01;;;;;;;1.43;1.27;;;;;;;7.20;57.74;101564.38;5070258;28;20202;-71
2021/03/31 00:10:35;;;;;;;1.43;1.13;;;;;;;7.34;56.65;101556.59;5070587;28;20170;-70
2021/03/31 00:13:01;;;;;;;1.67;1.57;;;;;;;7.39;56.17;101553.94;5071245;28;20312;-70
2021/03/31 00:15:26;;;;;;;1.87;1.20;;;;;;;7.38;54.52;101544.97;5070760;28;20285;-71
2021/03/31 00:17:52;;;;;;;1.80;1.47;;;;;;;7.32;55.95;101550.59;5070304;28;20171;-71
2021/03/31 00:20:21;;;;;;;1.50;1.27;;;;;;;7.13;57.21;101542.06;5070901;28;20186;-70
2021/03/31 00:22:46;;;;;;;1.70;1.60;;;;;;;6.94;57.93;101533.50;5070551;28;20643;-70
2021/03/31 00:25:13;;;;;;;2.30;1.43;;;;;;;6.89;58.51;101536.19;5070666;28;20213;-71
2021/03/31 00:27:40;;;;;;;1.10;0.90;;;;;;;6.92;56.85;101535.66;5071455;28;20688;-70
2021/03/31 00:30:08;;;;;;;1.57;1.37;;;;;;;6.98;57.72;101523.75;5073445;28;20525;-70
2021/03/31 00:32:33;;;;;;;2.17;1.80;;;;;;;7.07;54.53;101510.50;5074641;28;20261;-71
2021/03/31 00:34:58;;;;;;;1.37;1.27;;;;;;;7.12;55.44;101516.78;5074661;28;20709;-71
2021/03/31 00:37:24;;;;;;;1.97;1.67;;;;;;;7.02;57.33;101514.00;5074559;28;20590;-71
2021/03/31 00:39:49;;;;;;;1.87;1.30;;;;;;;6.80;57.75;101514.13;5074399;28;20638;-71
2021/03/31 00:42:14;;;;;;;1.93;1.77;;;;;;;6.76;58.51;101514.88;5074442;28;20182;-70
2021/03/31 00:44:40;;;;;;;2.20;1.60;;;;;;;6.73;59.28;101513.50;5074654;28;20225;-70
2021/03/31 00:47:05;;;;;;;1.77;1.63;;;;;;;6.64;61.15;101506.91;5073905;28;20262;-71
2021/03/31 00:49:31;;;;;;;1.37;1.07;;;;;;;6.63;60.56;101499.84;5074537;28;20174;-71
2021/03/31 00:51:57;;;;;;;1.00;0.90;;;;;;;6.72;61.02;101492.03;5074242;28;20202;-71
2021/03/31 00:54:22;;;;;;;2.13;1.93;;;;;;;6.69;57.60;101489.84;5074237;28;20206;-71
2021/03/31 00:56:48;;;;;;;1.33;1.10;;;;;;;6.75;58.95;101499.66;5074194;28;20174;-71
2021/03/31 00:59:13;;;;;;;1.90;1.80;;;;;;;6.93;59.96;101493.00;5074154;28;20178;-71
2021/03/31 01:01:39;;;;;;;1.63;1.50;;;;;;;7.05;59.82;101491.72;5072745;28;20185;-71
2021/03/31 01:04:04;;;;;;;1.90;1.60;;;;;;;7.01;60.21;101484.38;5074042;28;20171;-70
2021/03/31 01:06:29;;;;;;;1.13;1.03;;;;;;;6.80;59.03;101469.84;5073670;28;20178;-71
2021/03/31 01:08:55;;;;;;;1.60;1.50;;;;;;;6.74;58.76;101476.31;5074232;28;20206;-70
2021/03/31 01:11:31;;;;;;;1.57;1.47;;;;;;;6.78;56.19;101474.69;5072566;28;20183;-70
2021/03/31 01:14:13;;;;;;;2.00;1.80;;;;;;;6.89;58.47;101473.69;5073922;28;20842;-71
2021/03/31 01:16:47;;;;;;;1.67;1.40;;;;;;;6.85;58.87;101473.41;5073399;28;20170;-70
2021/03/31 01:19:38;;;;;;;1.27;1.10;;;;;;;6.76;59.00;101471.44;5073717;28;20634;-70
2021/03/31 01:22:03;;;;;;;1.43;1.20;;;;;;;6.74;59.82;101468.16;5073802;28;20171;-71
2021/03/31 01:25:06;;;;;;;1.63;1.30;;;;;;;6.57;60.34;101466.41;5072378;28;20315;-71
2021/03/31 01:27:43;;;;;;;1.50;1.27;;;;;;;6.57;61.34;101471.84;5072593;28;20666;-70
2021/03/31 01:30:12;;;;;;;2.30;1.37;;;;;;;6.54;61.46;101468.84;5073420;28;20240;-71
2021/03/31 01:32:37;;;;;;;1.60;1.47;;;;;;;6.47;61.23;101468.22;5073465;28;20269;-70
2021/03/31 01:35:07;;;;;;;3.03;1.37;;;;;;;6.40;61.48;101468.44;5073466;28;20269;-70
2021/03/31 01:37:39;;;;;;;2.57;2.00;;;;;;;6.33;62.28;101467.81;5073099;28;20193;-70
2021/03/31 01:40:08;;;;;;;2.03;1.40;;;;;;;6.17;62.01;101475.00;5072064;28;20220;-70
2021/03/31 01:42:36;;;;;;;3.77;2.17;;;;;;;6.13;62.90;101468.47;5073413;28;20525;-70
2021/03/31 01:45:05;;;;;;;2.53;1.57;;;;;;;6.11;63.45;101467.91;5073448;28;20187;-71
2021/03/31 01:47:35;;;;;;;2.30;1.17;;;;;;;6.11;62.94;101459.75;5072991;28;20664;-70
2021/03/31 01:50:03;;;;;;;1.40;1.30;;;;;;;6.06;64.01;101459.69;5073664;28;20665;-71
2021/03/31 01:52:29;;;;;;;0.90;0.90;;;;;;;6.00;64.17;101449.88;5073606;28;20178;-70
2021/03/31 01:54:56;;;;;;;2.53;2.03;;;;;;;5.95;64.79;101441.69;5073337;28;20226;-71
2021/03/31 01:57:24;;;;;;;3.07;2.77;;;;;;;5.81;66.16;101443.16;5073198;28;20700;-70
2021/03/31 01:59:51;;;;;;;6.87;5.77;;;;;;;5.73;64.91;101441.69;5073506;28;20174;-71
2021/03/31 02:02:19;;;;;;;9.93;5.40;;;;;;;5.84;64.87;101442.63;5073691;28;20700;-70
2021/03/31 02:04:46;;;;;;;4.20;3.57;;;;;;;6.00;64.35;101435.50;5073476;28;20258;-70
2021/03/31 02:07:11;;;;;;;3.97;3.27;;;;;;;6.03;63.72;101434.97;5072458;28;20174;-70
2021/03/31 02:09:41;;;;;;;3.47;3.17;;;;;;;5.89;64.45;101431.81;5073160;28;20174;-70
2021/03/31 02:12:08;;;;;;;2.67;2.47;;;;;;;5.81;64.91;101429.59;5073610;28;20629;-71
2021/03/31 02:14:39;;;;;;;2.40;2.20;;;;;;;5.77;65.32;101421.13;5072327;28;20672;-71
2021/03/31 02:17:07;;;;;;;2.47;1.80;;;;;;;5.80;63.66;101420.63;5073120;28;20159;-71
2021/03/31 02:19:33;;;;;;;1.40;1.30;;;;;;;6.00;63.33;101411.09;5073538;28;20585;-71
2021/03/31 02:22:00;;;;;;;2.20;2.00;;;;;;;6.08;61.96;101410.63;5073384;28;20658;-70
2021/03/31 02:24:27;;;;;;;2.27;1.77;;;;;;;6.06;61.04;101401.91;5073175;28;20174;-70
2021/03/31 02:26:52;;;;;;;2.43;1.97;;;;;;;6.26;59.34;101405.63;5072368;28;20186;-70
2021/03/31 02:29:17;;;;;;;1.40;1.10;;;;;;;6.36;60.67;101407.59;5071934;28;20198;-70
2021/03/31 02:31:45;;;;;;;2.03;1.87;;;;;;;6.38;61.06;101402.75;5073293;28;20261;-70
2021/03/31 02:34:13;;;;;;;1.57;1.20;;;;;;;6.42;61.52;101413.91;5073428;28;20171;-71
2021/03/31 02:36:40;;;;;;;1.53;1.27;;;;;;;6.39;60.93;101409.81;5072869;28;20179;-71
2021/03/31 02:39:08;;;;;;;2.40;1.70;;;;;;;6.40;62.00;101400.59;5073403;28;20483;-71
2021/03/31 02:41:37;;;;;;;2.80;1.47;;;;;;;6.29;61.33;101396.16;5073362;28;20232;-71
2021/03/31 02:44:04;;;;;;;1.50;1.40;;;;;;;6.34;62.40;101403.50;5073508;28;20265;-71
2021/03/31 02:46:32;;;;;;;3.40;1.83;;;;;;;6.26;62.15;101392.06;5072884;28;20210;-71
2021/03/31 02:48:58;;;;;;;2.30;2.03;;;;;;;6.13;61.91;101402.53;5073622;28;20194;-70
2021/03/31 02:51:24;;;;;;;1.87;1.77;;;;;;;6.15;62.79;101398.47;5073377;28;20189;-71
2021/03/31 02:53:49;;;;;;;2.67;2.10;;;;;;;6.08;63.05;101397.06;5074001;28;20581;-70
2021/03/31 02:56:16;;;;;;;2.10;1.17;;;;;;;5.98;62.93;101397.78;5073291;28;20198;-71
2021/03/31 02:58:43;;;;;;;2.47;1.87;;;;;;;5.97;64.12;101390.72;5073324;28;20167;-71
2021/03/31 03:01:09;;;;;;;3.00;2.70;;;;;;;5.94;63.91;101394.78;5073396;28;20273;-70
2021/03/31 03:03:35;;;;;;;3.07;2.50;;;;;;;5.82;64.82;101382.41;5073839;28;20262;-71
2021/03/31 03:06:03;;;;;;;2.50;2.30;;;;;;;5.78;65.45;101392.13;5073515;28;20166;-70
2021/03/31 03:08:29;;;;;;;2.60;2.40;;;;;;;5.76;65.90;101378.81;5073477;28;20198;-71
2021/03/31 03:11:03;;;;;;;2.57;2.00;;;;;;;5.76;66.05;101381.53;5073940;28;20173;-70
2021/03/31 03:13:29;;;;;;;2.93;2.37;;;;;;;5.77;66.02;101380.47;5073730;28;20351;-70
2021/03/31 03:15:55;;;;;;;2.00;1.80;;;;;;;5.85;65.52;101369.16;5074163;28;20261;-71
2021/03/31 03:18:22;;;;;;;2.60;2.40;;;;;;;5.82;65.53;101375.09;5073364;28;20173;-71
2021/03/31 03:20:48;;;;;;;2.80;2.10;;;;;;;5.84;65.67;101370.22;5073867;28;20228;-70
2021/03/31 03:23:16;;;;;;;2.60;2.10;;;;;;;5.96;65.30;101370.94;5073763;28;20178;-70
2021/03/31 03:25:42;;;;;;;3.13;2.50;;;;;;;6.04;65.45;101371.50;5073794;28;20177;-71
2021/03/31 03:28:08;;;;;;;2.40;2.13;;;;;;;6.02;65.66;101371.78;5072626;28;20539;-71
2021/03/31 03:30:34;;;;;;;2.03;1.83;;;;;;;6.03;65.32;101356.31;5075225;28;20174;-71
2021/03/31 03:33:01;;;;;;;2.47;2.27;;;;;;;6.00;64.90;101362.25;5080790;28;20249;-71
2021/03/31 03:35:27;;;;;;;2.53;1.90;;;;;;;6.06;65.37;101355.78;5075339;28;20174;-71
2021/03/31 03:37:53;;;;;;;2.17;1.80;;;;;;;6.07;65.31;101349.28;5071864;28;20175;-71
2021/03/31 03:40:23;;;;;;;1.97;1.87;;;;;;;6.16;65.17;101351.28;5071788;28;20216;-71
2021/03/31 03:42:49;;;;;;;1.73;1.60;;;;;;;6.29;64.74;101343.78;5071392;28;20217;-71
2021/03/31 03:45:16;;;;;;;2.83;1.90;;;;;;;6.31;64.23;101350.56;5071097;28;20206;-71
2021/03/31 03:47:43;;;;;;;2.27;1.60;;;;;;;6.32;64.31;101348.69;5070811;28;20194;-71
2021/03/31 03:50:14;;;;;;;1.57;1.47;;;;;;;6.13;64.44;101351.81;5071102;28;20186;-71
2021/03/31 03:52:41;;;;;;;1.90;1.60;;;;;;;6.04;64.99;101341.69;5071366;28;20166;-71
2021/03/31 03:55:07;;;;;;;1.83;1.63;;;;;;;5.93;65.54;101336.19;5071033;28;20592;-70
2021/03/31 03:57:33;;;;;;;3.73;2.87;;;;;;;5.79;65.49;101344.97;5070663;28;20170;-70
2021/03/31 03:59:58;;;;;;;3.27;2.17;;;;;;;5.61;65.36;101348.84;5070684;28;20509;-71
2021/03/31 04:02:24;;;;;;;2.57;2.00;;;;;;;5.46;66.08;101343.28;5070108;28;20258;-71
2021/03/31 04:04:50;;;;;;;3.13;1.67;;;;;;;5.42;66.57;101347.56;5071221;28;20236;-70
2021/03/31 04:07:15;;;;;;;3.10;2.50;;;;;;;5.40;67.28;101342.41;5070376;28;20552;-70
2021/03/31 04:09:45;;;;;;;2.80;1.70;;;;;;;5.30;67.24;101343.09;5070847;28;20170;-70
2021/03/31 04:12:11;;;;;;;1.43;1.33;;;;;;;5.21;67.95;101339.22;5070819;28;20198;-71
2021/03/31 04:14:41;;;;;;;3.97;2.20;;;;;;;5.18;68.50;101338.91;5070617;28;20244;-71
2021/03/31 04:17:09;;;;;;;1.70;1.60;;;;;;;5.15;69.27;101345.66;5069076;28;20204;-70
2021/03/31 04:19:37;;;;;;;2.87;2.17;;;;;;;5.13;69.66;101345.09;5070697;28;20178;-70
2021/03/31 04:22:03;;;;;;;2.07;1.80;;;;;;;5.15;69.74;101334.81;5070658;28;20174;-70
2021/03/31 04:24:28;;;;;;;2.43;1.73;;;;;;;5.10;70.00;101331.22;5070561;28;20174;-71
2021/03/31 04:26:55;;;;;;;5.33;2.90;;;;;;;5.06;70.20;101329.03;5069937;28;20210;-70
2021/03/31 04:29:21;;;;;;;3.37;2.00;;;;;;;5.01;70.14;101326.25;5070611;28;20676;-70
2021/03/31 04:31:46;;;;;;;2.63;2.33;;;;;;;4.99;70.42;101328.41;5070481;28;20224;-70
2021/03/31 04:34:12;;;;;;;3.20;1.80;;;;;;;4.95;70.17;101335.41;5070645;28;20216;-71
2021/03/31 04:36:37;;;;;;;5.07;3.23;;;;;;;4.88;71.01;101328.53;5070140;28;20681;-71
2021/03/31 04:39:05;;;;;;;2.73;2.23;;;;;;;4.74;71.39;101319.94;5070620;28;20174;-71
2021/03/31 04:41:31;;;;;;;2.13;1.90;;;;;;;4.75;72.03;101327.00;5070494;28;20166;-70
2021/03/31 04:43:56;;;;;;;1.83;1.73;;;;;;;4.81;72.45;101319.78;5070388;28;20178;-71
2021/03/31 04:46:22;;;;;;;4.20;2.60;;;;;;;4.81;72.50;101320.59;5070101;28;20585;-70
2021/03/31 04:48:47;;;;;;;2.60;2.33;;;;;;;4.83;71.96;101321.16;5070312;28;20206;-70
2021/03/31 04:51:13;;;;;;;9.47;2.13;;;;;;;4.80;71.68;101310.84;5070326;28;20311;-70
2021/03/31 04:53:38;;;;;;;4.13;2.80;;;;;;;4.73;72.14;101319.13;5070489;28;20166;-70
2021/03/31 04:56:06;;;;;;;2.73;1.57;;;;;;;4.68;71.81;101315.56;5070136;28;20714;-70
2021/03/31 04:58:31;;;;;;;2.37;1.70;;;;;;;4.70;72.19;101318.81;5070189;28;20166;-71
2021/03/31 05:00:58;;;;;;;2.67;2.20;;;;;;;4.75;72.18;101317.00;5070239;28;20556;-71
2021/03/31 05:03:24;;;;;;;2.87;2.20;;;;;;;4.81;72.29;101317.06;5070209;28;20178;-70
2021/03/31 05:05:49;;;;;;;2.43;2.20;;;;;;;4.76;72.54;101326.75;5070158;28;20179;-71
2021/03/31 05:08:14;;;;;;;3.30;3.00;;;;;;;4.70;73.04;101316.94;5069754;28;20245;-71
2021/03/31 05:10:40;;;;;;;3.80;2.17;;;;;;;4.62;73.82;101314.66;5070245;28;20219;-71
2021/03/31 05:13:05;;;;;;;3.63;2.57;;;;;;;4.55;73.41;101314.03;5071323;28;20183;-70
2021/03/31 05:15:31;;;;;;;2.57;2.27;;;;;;;4.43;74.52;101319.53;5072547;28;20216;-71
2021/03/31 05:17:56;;;;;;;3.83;2.70;;;;;;;4.38;74.61;101313.25;5073341;28;20174;-70
2021/03/31 05:20:22;;;;;;;3.83;3.53;;;;;;;4.44;74.83;101312.22;5072379;28;20545;-70
2021/03/31 05:22:47;;;;;;;3.93;3.03;;;;;;;4.57;74.34;101301.06;5073924;28;20175;-71
2021/03/31 05:25:13;;;;;;;6.67;2.40;;;;;;;4.70;74.40;101303.41;5073661;28;20267;-71
2021/03/31 05:27:39;;;;;;;3.93;2.47;;;;;;;4.81;73.40;101298.13;5072725;28;20202;-71
2021/03/31 05:30:08;;;;;;;8.80;2.57;;;;;;;4.82;73.74;101302.47;5073639;28;20170;-71
2021/03/31 05:32:33;;;;;;;3.60;3.00;;;;;;;4.96;73.78;101295.59;5072229;28;20257;-71
2021/03/31 05:35:00;;;;;;;3.53;3.23;;;;;;;5.00;73.01;101294.00;5073376;28;20300;-70
2021/03/31 05:37:25;;;;;;;2.57;2.33;;;;;;;4.99;72.71;101295.09;5071890;28;20202;-70
2021/03/31 05:39:51;;;;;;;2.00;1.70;;;;;;;5.00;73.22;101281.28;5073083;28;20206;-70
2021/03/31 05:42:16;;;;;;;3.43;2.53;;;;;;;5.01;73.53;101288.34;5071953;28;20178;-70
2021/03/31 05:44:43;;;;;;;3.17;2.10;;;;;;;5.07;74.09;101287.34;5073300;28;20251;-70
2021/03/31 05:47:12;;;;;;;2.33;1.87;;;;;;;5.15;72.37;101283.34;5073006;28;20193;-70
2021/03/31 05:49:38;;;;;;;3.20;2.63;;;;;;;5.26;72.59;101293.22;5073109;28;20175;-70
2021/03/31 05:52:07;;;;;;;2.23;2.03;;;;;;;5.43;71.63;101286.88;5073260;28;20167;-70
2021/03/31 05:54:32;;;;;;;3.17;2.93;;;;;;;5.57;71.25;101296.22;5073423;28;20178;-71
2021/03/31 05:56:58;;;;;;;3.60;2.90;;;;;;;5.68;70.82;101287.94;5072895;28;20688;-70
2021/03/31 05:59:24;;;;;;;3.17;2.77;;;;;;;5.77;70.56;101288.28;5073163;28;20619;-70
2021/03/31 06:01:50;;;;;;;2.90;2.40;;;;;;;5.90;69.90;101289.75;5073185;28;20182;-71
2021/03/31 06:04:17;;;;;;;4.07;2.33;;;;;;;6.03;69.27;101285.78;5072848;28;20588;-71
2021/03/31 06:06:42;;;;;;;3.93;2.67;;;;;;;6.15;68.24;101278.28;5072829;28;20174;-71
2021/03/31 06:09:09;;;;;;;3.57;2.47;;;;;;;6.22;68.29;101290.56;5072798;28;20205;-70
2021/03/31 06:11:59;;;;;;;4.10;3.67;;;;;;;6.29;68.15;101286.78;5072785;28;20221;-72
2021/03/31 06:14:32;;;;;;;4.57;3.33;;;;;;;6.40;67.97;101288.50;5072769;28;20638;-71
2021/03/31 06:17:12;;;;;;;3.93;3.53;;;;;;;6.54;68.56;101292.38;5071096;28;20171;-71
2021/03/31 06:19:39;;;;;;;4.10;3.30;;;;;;;6.74;66.99;101287.03;5072676;28;20194;-71
2021/03/31 06:24:58;;;;;;;4.47;2.03;;;;;;;7.08;65.34;101281.16;5072513;28;20167;-72
2021/03/31 06:27:28;;;;;;;3.77;2.70;;;;;;;7.15;65.33;101285.28;5071535;28;20181;-71
2021/03/31 06:30:06;;;;;;;3.00;2.70;;;;;;;7.26;64.43;101286.13;5072449;28;20171;-71
2021/03/31 06:32:40;;;;;;;3.27;2.73;;;;;;;7.39;64.22;101287.50;5072369;28;20630;-71
2021/03/31 06:35:15;;;;;;;2.77;2.50;;;;;;;7.51;63.66;101279.91;5070921;28;20196;-72
2021/03/31 06:37:40;;;;;;;5.57;3.70;;;;;;;7.64;61.61;101284.81;5071853;28;20371;-71
2021/03/31 06:40:07;;;;;;;3.47;2.60;;;;;;;7.73;61.07;101277.75;5072248;28;20662;-71
2021/03/31 06:42:44;;;;;;;3.57;3.27;;;;;;;7.81;62.16;101279.13;5072230;28;20789;-71
2021/03/31 06:45:21;;;;;;;2.97;2.67;;;;;;;7.95;60.84;101284.81;5072023;28;20182;-71
2021/03/31 06:50:15;;;;;;;2.50;2.30;;;;;;;8.12;60.69;101285.34;5072630;28;20174;-71
2021/03/31 06:53:01;;;;;;;8.00;3.10;;;;;;;8.28;60.49;101289.69;5072095;28;20328;-71
2021/03/31 06:55:29;;;;;;;3.37;2.73;;;;;;;8.36;60.07;101285.59;5072149;28;20216;-71
2021/03/31 06:57:56;;;;;;;4.57;3.33;;;;;;;8.47;59.50;101289.94;5071620;28;20178;-71
2021/03/31 07:00:26;;;;;;;3.00;2.77;;;;;;;8.58;59.37;101277.13;5072096;28;20224;-70
2021/03/31 07:02:53;;;;;;;3.07;2.63;;;;;;;8.65;59.44;101274.91;5072224;28;20259;-71
2021/03/31 07:05:18;;;;;;;2.90;2.63;;;;;;;8.75;59.43;101274.88;5071866;28;20218;-70
2021/03/31 07:07:44;;;;;;;2.60;2.40;;;;;;;8.85;59.50;101274.84;5071182;28;20292;-71
2021/03/31 07:10:14;;;;;;;3.53;2.67;;;;;;;8.91;59.26;101270.97;5071745;28;20171;-71
2021/03/31 07:12:47;;;;;;;3.40;2.83;;;;;;;9.08;59.11;101272.53;5071543;28;20630;-71
2021/03/31 07:15:15;;;;;;;3.43;3.00;;;;;;;9.25;59.69;101270.25;5071404;28;20178;-70
2021/03/31 07:17:52;;;;;;;3.17;2.73;;;;;;;9.38;59.57;101266.88;5071211;28;20193;-71
2021/03/31 07:20:18;;;;;;;2.83;2.63;;;;;;;9.53;58.51;101268.69;5071402;28;20627;-71
2021/03/31 07:22:44;;;;;;;3.43;3.13;;;;;;;9.68;58.67;101262.31;5071581;28;20245;-71
2021/03/31 07:25:11;;;;;;;3.67;3.37;;;;;;;9.77;59.02;101268.78;5071177;28;20253;-71
2021/03/31 07:27:38;;;;;;;3.27;2.73;;;;;;;9.90;59.55;101256.41;5070297;28;20190;-71
2021/03/31 07:30:13;;;;;;;3.30;2.47;;;;;;;10.01;59.09;101264.22;5071418;28;20174;-71
2021/03/31 07:32:57;;;;;;;3.57;3.00;;;;;;;10.21;58.69;101259.66;5071818;28;20551;-71
2021/03/31 07:35:27;;;;;;;4.17;3.13;;;;;;;10.28;58.87;101255.53;5071372;28;20201;-71
2021/03/31 07:37:53;;;;;;;2.90;2.70;;;;;;;10.44;59.20;101247.97;5070732;28;20200;-72
2021/03/31 07:40:22;;;;;;;3.40;3.10;;;;;;;10.65;59.38;101248.53;5067928;28;20700;-71
2021/03/31 07:43:00;;;;;;;2.93;2.73;;;;;;;10.71;59.41;101247.38;5071161;28;20281;-71
2021/03/31 07:45:28;;;;;;;3.53;2.50;;;;;;;11.00;60.28;101247.28;5070866;28;20190;-71
2021/03/31 07:47:54;;;;;;;3.63;3.33;;;;;;;11.46;59.40;101244.69;5069752;28;20661;-72
2021/03/31 07:50:20;;;;;;;3.00;2.70;;;;;;;11.66;58.79;101243.53;5069216;28;20174;-72
2021/03/31 07:52:54;;;;;;;3.10;2.90;;;;;;;11.90;57.95;101240.69;5071636;28;20171;-71
2021/03/31 07:55:34;;;;;;;3.87;3.00;;;;;;;12.13;57.26;101252.59;5071425;28;20689;-72
2021/03/31 07:58:17;;;;;;;3.33;3.03;;;;;;;12.16;58.20;101243.81;5070870;28;20198;-72
2021/03/31 08:00:46;;;;;;;3.70;3.30;;;;;;;12.21;57.60;101254.66;5071071;28;20194;-72
2021/03/31 08:03:22;;;;;;;2.43;2.23;;;;;;;12.36;57.30;101245.34;5070770;28;20661;-72
2021/03/31 08:06:05;;;;;;;3.03;2.73;;;;;;;12.43;57.22;101252.03;5071330;28;20170;-72
2021/03/31 08:08:52;;;;;;;3.30;3.00;;;;;;;12.46;58.90;101243.22;5070681;28;20260;-72
2021/03/31 08:11:36;;;;;;;4.07;3.73;;;;;;;12.63;58.33;101250.81;5069837;28;20185;-72
2021/03/31 08:14:02;;;;;;;3.50;3.20;;;;;;;12.79;58.75;101249.38;5069754;28;20217;-72
2021/03/31 08:16:35;;;;;;;4.20;3.80;;;;;;;13.00;56.88;101246.19;5070226;28;20213;-72
2021/03/31 08:19:03;;;;;;;3.07;2.77;;;;;;;13.07;57.41;101236.44;5061448;28;20236;-72
2021/03/31 08:21:30;;;;;;;3.60;3.30;;;;;;;13.25;56.60;101231.94;5070533;28;20174;-72
2021/03/31 08:23:57;;;;;;;6.90;3.50;;;;;;;13.47;56.76;101236.66;5069269;28;20178;-72
2021/03/31 08:26:32;;;;;;;2.97;2.70;;;;;;;13.53;57.14;101237.34;5069916;28;20179;-72
2021/03/31 08:29:03;;;;;;;3.87;3.50;;;;;;;13.81;55.98;101244.31;5070998;28;20206;-72
2021/03/31 08:31:30;;;;;;;3.50;3.20;;;;;;;14.07;55.83;101235.41;5069767;28;20179;-72
2021/03/31 08:33:56;;;;;;;3.50;3.17;;;;;;;14.36;55.16;101234.91;5071515;28;20179;-72
2021/03/31 08:36:22;;;;;;;3.70;3.30;;;;;;;14.42;55.60;101233.63;5070595;28;20526;-72
2021/03/31 08:38:55;;;;;;;4.67;3.50;;;;;;;14.71;55.56;101231.16;5071337;28;20166;-72
2021/03/31 08:41:25;;;;;;;4.43;3.03;;;;;;;14.88;55.03;101230.38;5070542;28;20166;-72
2021/03/31 08:44:09;;;;;;;4.60;4.17;;;;;;;15.14;54.78;101230.44;5070432;28;20212;-72
2021/03/31 08:46:34;;;;;;;4.17;3.77;;;;;;;15.52;54.90;101225.09;5068351;28;20182;-72
2021/03/31 08:49:00;;;;;;;4.20;3.80;;;;;;;15.85;54.11;101235.59;5069963;28;20689;-71
2021/03/31 08:51:25;;;;;;;3.73;3.43;;;;;;;15.81;53.86;101232.69;5068951;28;20597;-71
2021/03/31 08:53:51;;;;;;;3.83;3.43;;;;;;;15.99;52.52;101228.75;5069910;28;20231;-72
2021/03/31 08:56:21;;;;;;;5.27;4.60;;;;;;;16.03;52.87;101226.13;5073896;28;20708;-71
2021/03/31 08:58:53;;;;;;;3.53;3.23;;;;;;;16.01;53.12;101232.00;5069226;28;20181;-72
2021/03/31 09:01:30;;;;;;;3.93;3.53;;;;;;;16.10;51.99;101214.63;5071753;28;20170;-72
2021/03/31 09:04:20;;;;;;;4.80;4.30;;;;;;;16.24;51.25;101216.03;5059146;28;20661;-71
2021/03/31 09:06:46;;;;;;;3.53;3.23;;;;;;;16.80;40.80;101205.72;5061371;28;20179;-72
2021/03/31 09:09:12;;;;;;;3.60;3.30;;;;;;;16.92;47.35;101213.25;5072053;28;20236;-71
2021/03/31 09:11:37;;;;;;;5.40;3.40;;;;;;;17.37;40.12;101207.88;5054023;28;20168;-71
2021/03/31 09:14:20;;;;;;;4.17;3.77;;;;;;;17.54;43.81;101202.19;5073425;28;20182;-72
2021/03/31 09:16:56;;;;;;;3.70;3.33;;;;;;;17.38;45.06;101200.41;5073497;28;20197;-71
2021/03/31 09:19:23;;;;;;;3.50;3.17;;;;;;;17.49;41.86;101198.81;5073424;28;20175;-72
2021/03/31 09:21:49;;;;;;;3.03;2.83;;;;;;;17.80;39.50;101188.13;5073479;28;20175;-72
2021/03/31 09:24:16;;;;;;;3.40;3.07;;;;;;;18.27;39.06;101190.50;5073598;28;20181;-72
2021/03/31 09:26:55;;;;;;;3.77;3.43;;;;;;;18.75;38.80;101188.88;5071338;28;20174;-71
2021/03/31 09:29:20;;;;;;;2.73;2.53;;;;;;;18.90;38.41;101184.59;5073435;28;20697;-71
2021/03/31 09:31:46;;;;;;;3.43;3.13;;;;;;;19.20;35.72;101185.88;5073477;28;20174;-71
2021/03/31 09:34:12;;;;;;;4.07;3.33;;;;;;;19.14;38.02;101190.06;5073470;28;20204;-71
2021/03/31 09:36:37;;;;;;;5.00;4.30;;;;;;;19.22;39.61;101183.56;5073123;28;20212;-71
2021/03/31 09:39:05;;;;;;;2.80;2.53;;;;;;;19.36;34.35;101176.81;5073653;28;20209;-71
2021/03/31 09:41:31;;;;;;;3.40;3.10;;;;;;;19.64;35.89;101179.59;5073153;28;20171;-71
2021/03/31 09:44:00;;;;;;;3.47;3.17;;;;;;;19.78;33.97;101171.66;5073194;28;20171;-71
2021/03/31 09:46:26;;;;;;;2.43;2.13;;;;;;;19.91;33.74;101174.00;5072862;28;20178;-72
2021/03/31 09:48:53;;;;;;;3.30;2.80;;;;;;;20.03;31.07;101175.91;5073128;28;20666;-71
2021/03/31 09:51:19;;;;;;;2.70;2.50;;;;;;;20.26;32.78;101183.63;5073117;28;20185;-71
2021/03/31 09:53:45;;;;;;;3.80;3.50;;;;;;;20.24;36.91;101180.38;5073459;28;20209;-72
2021/03/31 09:56:12;;;;;;;3.30;3.00;;;;;;;20.32;32.30;101171.06;5071210;28;20203;-72
2021/03/31 09:58:39;;;;;;;3.87;3.57;;;;;;;20.25;32.66;101170.88;5072973;28;20178;-72
2021/03/31 10:01:08;;;;;;;3.73;3.23;;;;;;;20.25;33.10;101173.66;5071601;28;20484;-72
2021/03/31 10:03:33;;;;;;;2.20;2.00;;;;;;;20.31;31.91;101161.13;5072955;28;20175;-72
2021/03/31 10:06:17;;;;;;;2.90;2.43;;;;;;;20.35;31.86;101157.25;5072792;28;20553;-72
2021/03/31 10:08:42;;;;;;;2.43;2.23;;;;;;;20.47;32.14;101161.94;5072618;28;20198;-71
2021/03/31 10:11:35;;;;;;;2.93;2.73;;;;;;;20.62;31.27;101160.28;5071722;28;20245;-71
2021/03/31 10:14:03;;;;;;;3.00;2.73;;;;;;;20.65;32.38;101151.22;5071692;28;20167;-72
2021/03/31 10:16:37;;;;;;;3.10;2.80;;;;;;;20.72;31.53;101149.44;5072530;28;20178;-71
2021/03/31 10:19:05;;;;;;;2.90;2.63;;;;;;;20.84;31.72;101145.72;5072531;28;20184;-72
2021/03/31 10:21:32;;;;;;;3.00;2.70;;;;;;;20.97;33.74;101146.38;5072697;28;20246;-71
2021/03/31 10:23:58;;;;;;;2.70;2.50;;;;;;;21.02;31.03;101146.09;5072532;28;20436;-71
2021/03/31 10:26:24;;;;;;;3.00;2.80;;;;;;;20.99;32.04;101144.06;5070195;28;20668;-71
2021/03/31 10:28:50;;;;;;;3.00;2.70;;;;;;;21.00;30.72;101135.34;5072345;28;20194;-71
2021/03/31 10:31:31;;;;;;;6.07;2.40;;;;;;;21.12;31.94;101139.13;5070921;28;20638;-71
2021/03/31 10:33:57;;;;;;;3.07;2.77;;;;;;;21.15;31.04;101124.53;5072267;28;20626;-71
2021/03/31 10:50:06;;;;;;;2.97;2.67;;;;;;;21.66;28.26;101122.34;5072292;28;20274;-72
2021/03/31 10:52:36;;;;;;;2.33;2.03;;;;;;;21.78;28.94;101122.16;5071888;28;20581;-71
2021/03/31 10:55:01;;;;;;;3.10;2.90;;;;;;;21.77;30.05;101117.78;5070737;28;20175;-71
2021/03/31 10:57:27;;;;;;;3.37;3.07;;;;;;;21.81;29.48;101115.84;5071421;28;20177;-71
2021/03/31 10:59:52;;;;;;;2.33;2.13;;;;;;;21.83;29.79;101115.47;5071786;28;20620;-71
2021/03/31 11:02:18;;;;;;;2.30;2.10;;;;;;;21.88;29.49;101120.75;5071945;28;20542;-71
2021/03/31 11:04:44;;;;;;;3.33;3.07;;;;;;;21.89;29.08;101114.00;5071652;28;20570;-71
2021/03/31 11:07:10;;;;;;;3.13;2.83;;;;;;;21.94;27.88;101113.69;5071443;28;20575;-72
2021/03/31 11:09:38;;;;;;;3.10;2.80;;;;;;;22.02;29.26;101114.63;5067305;28;20695;-71
2021/03/31 11:12:04;;;;;;;3.10;2.80;;;;;;;21.94;28.86;101111.69;5070157;28;20210;-72
2021/03/31 11:14:29;;;;;;;2.53;2.33;;;;;;;21.80;27.09;101099.53;5070238;28;20646;-71
2021/03/31 11:16:58;;;;;;;3.93;3.17;;;;;;;21.81;27.03;101101.94;5069272;28;20174;-71
2021/03/31 11:27:22;;;;;;;3.57;3.13;;;;;;;22.36;26.70;101082.16;5070103;28;20183;-71
2021/03/31 11:29:49;;;;;;;2.73;2.53;;;;;;;22.50;25.72;101071.22;5070953;28;20180;-71
2021/03/31 11:32:14;;;;;;;3.63;3.33;;;;;;;22.62;25.63;101065.41;5071245;28;20178;-71
2021/03/31 11:34:40;;;;;;;2.73;2.53;;;;;;;22.80;25.46;101065.63;5071123;28;20181;-71
2021/03/31 11:37:05;;;;;;;3.50;3.20;;;;;;;22.69;25.29;101065.50;5070323;28;20210;-71
2021/03/31 11:39:30;;;;;;;3.50;3.20;;;;;;;22.73;24.59;101063.56;5070891;28;20171;-71
2021/03/31 11:41:56;;;;;;;2.03;1.93;;;;;;;22.79;25.80;101055.66;5071005;28;20595;-71
2021/03/31 11:44:21;;;;;;;2.73;2.53;;;;;;;22.89;25.02;101049.47;5070859;28;20193;-72
2021/03/31 11:46:46;;;;;;;2.53;2.33;;;;;;;22.88;24.61;101056.22;5070740;28;20668;-71
2021/03/31 11:49:12;;;;;;;2.77;2.57;;;;;;;23.03;25.63;101051.59;5068342;28;20213;-71
2021/03/31 11:51:38;;;;;;;3.80;3.50;;;;;;;23.23;26.65;101052.22;5070741;28;20253;-71
2021/03/31 11:54:04;;;;;;;3.43;3.20;;;;;;;23.27;24.13;101044.66;5070784;28;20202;-71
2021/03/31 11:56:29;;;;;;;2.30;2.10;;;;;;;23.44;25.35;101039.28;5070216;28;20198;-71
2021/03/31 11:58:56;;;;;;;2.63;2.43;;;;;;;23.47;26.29;101034.13;5070997;28;20175;-71
2021/03/31 12:01:21;;;;;;;4.90;3.33;;;;;;;23.55;23.44;101028.19;5070336;28;20174;-71
2021/03/31 12:03:46;;;;;;;2.20;2.00;;;;;;;23.38;21.84;101028.84;5070669;28;20244;-71